Time;durP1;ratioP1;P1;durP2;ratioP2;P2;SDS_P1;SDS_P2;PMS_P1;PMS_P2;Temp;Humidity;BMP_temperature;BMP_pressure;BME280_temperature;BME280_humidity;BME280_pressure;Samples;Min_cycle;Max_cycle;Signal;HPM_P1;HPM_P2
2023/07/09 00:01:41;;;;;;;42.60;2.50;;;;;;;25.28;54.01;99865.63;7325913;19;129126;-37
2023/07/09 00:04:10;;;;;;;35.40;2.20;;;;;;;25.47;54.20;99868.03;7327316;19;129010;-36
2023/07/09 00:06:35;;;;;;;30.38;1.85;;;;;;;25.47;54.44;99854.88;7326909;19;130207;-33
2023/07/09 00:09:01;;;;;;;18.93;1.37;;;;;;;25.60;54.02;99868.44;7324531;19;131884;-35
2023/07/09 00:11:26;;;;;;;41.67;2.30;;;;;;;25.62;54.24;99869.09;7325810;19;128742;-32
2023/07/09 00:13:51;;;;;;;35.47;2.00;;;;;;;25.65;54.38;99863.53;7325194;19;129887;-31
2023/07/09 00:16:24;;;;;;;33.10;2.07;;;;;;;25.67;54.55;99865.00;7326106;19;130980;-35
2023/07/09 00:18:49;;;;;;;34.15;2.03;;;;;;;25.67;54.15;99856.28;7324981;19;129427;-34
2023/07/09 00:21:17;;;;;;;40.93;2.53;;;;;;;25.68;54.74;99857.94;7325642;19;129106;-36
2023/07/09 00:23:42;;;;;;;36.05;2.10;;;;;;;25.68;54.53;99863.22;7323214;19;129193;-36
2023/07/09 00:26:13;;;;;;;34.13;2.10;;;;;;;25.70;54.45;99862.06;7323667;19;130138;-35
2023/07/09 00:28:42;;;;;;;29.08;1.83;;;;;;;25.69;54.22;99862.22;7323662;19;131452;-34
2023/07/09 00:31:13;;;;;;;25.83;1.63;;;;;;;25.70;55.01;99866.53;7324885;19;128938;-33
2023/07/09 00:33:38;;;;;;;34.08;2.10;;;;;;;25.20;50.63;99857.69;7324765;19;129905;-36
2023/07/09 00:36:13;;;;;;;39.23;2.33;;;;;;;25.00;51.33;99861.53;7325376;19;130349;-31
2023/07/09 00:38:40;;;;;;;14.05;1.00;;;;;;;24.95;51.04;99864.63;7322899;19;130331;-33
2023/07/09 00:41:08;;;;;;;;;;;;;;;24.98;50.83;99860.84;7324499;19;131447;-36
2023/07/09 00:43:35;;;;;;;75.80;4.43;;;;;;;25.23;54.23;99858.22;7322700;19;129062;-36
2023/07/09 00:46:36;;;;;;;46.25;2.67;;;;;;;25.55;53.71;99854.94;7324541;19;130526;-35
2023/07/09 00:49:05;;;;;;;47.67;2.63;;;;;;;25.60;54.29;99860.56;7322085;19;131378;-32
2023/07/09 00:51:33;;;;;;;62.28;3.80;;;;;;;25.60;54.17;99850.03;7323206;19;130988;-33
2023/07/09 00:54:07;;;;;;;10.50;0.88;;;;;;;25.65;54.45;99853.00;7323725;19;129884;-35
2023/07/09 00:56:40;;;;;;;64.22;3.95;;;;;;;25.68;54.62;99847.41;7319561;19;129466;-35
2023/07/09 00:59:11;;;;;;;26.60;1.80;;;;;;;25.67;54.80;99846.56;7314836;19;129644;-35
2023/07/09 01:01:40;;;;;;;73.85;4.30;;;;;;;25.69;54.46;99838.50;7314431;19;128907;-38
2023/07/09 01:04:08;;;;;;;24.35;1.63;;;;;;;25.70;54.85;99846.25;7316107;19;129225;-37
2023/07/09 01:06:44;;;;;;;40.05;2.70;;;;;;;25.72;54.17;99843.44;7314969;19;130121;-35
2023/07/09 01:09:10;;;;;;;28.23;1.77;;;;;;;25.72;54.74;99854.00;7315110;19;131148;-34
2023/07/09 01:11:37;;;;;;;64.40;3.67;;;;;;;25.70;54.56;99846.25;7314651;19;129169;-36
2023/07/09 01:14:06;;;;;;;42.47;2.60;;;;;;;25.25;51.80;99844.91;7315755;19;128823;-35
2023/07/09 01:16:37;;;;;;;24.50;1.77;;;;;;;24.99;50.68;99834.38;7314773;19;130237;-35
2023/07/09 01:19:04;;;;;;;27.25;1.70;;;;;;;24.98;50.33;99843.25;7315212;19;130207;-30
2023/07/09 01:21:29;;;;;;;25.63;1.52;;;;;;;24.92;50.14;99850.94;7315500;19;128976;-35
2023/07/09 01:23:55;;;;;;;40.97;2.40;;;;;;;25.19;54.22;99837.59;7315186;19;129507;-38
2023/07/09 01:26:26;;;;;;;38.20;2.17;;;;;;;25.50;54.22;99849.31;7316132;19;130118;-35
2023/07/09 01:28:55;;;;;;;47.75;2.75;;;;;;;25.61;54.36;99847.22;7314194;19;130380;-35
2023/07/09 01:31:22;;;;;;;29.08;1.85;;;;;;;25.63;53.99;99844.44;7315127;19;129250;-31
2023/07/09 01:33:47;;;;;;;68.65;4.30;;;;;;;25.60;54.24;99829.75;7312586;19;129226;-39
2023/07/09 01:36:17;;;;;;;31.13;1.90;;;;;;;25.69;53.96;99833.25;7314773;19;129024;-34
2023/07/09 01:38:43;;;;;;;52.30;3.15;;;;;;;25.69;53.82;99844.63;7313339;19;131440;-33
2023/07/09 01:41:13;;;;;;;30.30;1.83;;;;;;;25.70;54.66;99843.63;7315493;19;131269;-36
2023/07/09 01:43:41;;;;;;;37.50;2.35;;;;;;;25.70;54.11;99838.34;7317614;19;129255;-32
2023/07/09 01:46:08;;;;;;;55.97;3.10;;;;;;;25.72;54.19;99840.03;7317113;19;130567;-35
2023/07/09 01:48:40;;;;;;;25.35;1.63;;;;;;;25.73;54.34;99849.56;7317191;19;130392;-35
2023/07/09 01:51:10;;;;;;;63.83;3.70;;;;;;;25.73;54.17;99847.75;7313427;19;128999;-31
2023/07/09 01:53:37;;;;;;;27.00;1.70;;;;;;;25.71;54.81;99849.72;7314250;19;129175;-35
2023/07/09 01:56:03;;;;;;;109.95;6.07;;;;;;;25.16;50.37;99851.09;7312703;19;129065;-34
2023/07/09 01:58:31;;;;;;;26.70;1.67;;;;;;;25.07;50.66;99854.66;7313687;19;131487;-37
2023/07/09 02:00:58;;;;;;;42.25;2.55;;;;;;;24.95;50.30;99845.38;7311741;19;129300;-36
2023/07/09 02:03:24;;;;;;;26.05;1.77;;;;;;;24.94;52.20;99841.09;7311880;19;129246;-38
2023/07/09 02:05:52;;;;;;;53.75;3.08;;;;;;;25.40;53.78;99843.34;7313768;19;129482;-37
2023/07/09 02:08:18;;;;;;;57.33;3.55;;;;;;;25.56;53.93;99840.78;7311873;19;130339;-36
2023/07/09 02:10:44;;;;;;;13.17;1.13;;;;;;;25.63;53.61;99841.78;7310555;19;129373;-35
2023/07/09 02:13:10;;;;;;;;;;;;;;;25.76;53.82;99834.25;7314232;19;129614;-38
2023/07/09 02:15:36;;;;;;;40.90;2.43;;;;;;;25.70;53.97;99838.34;7314663;19;129427;-33
2023/07/09 02:18:01;;;;;;;33.97;2.07;;;;;;;25.71;54.24;99839.19;7313105;19;130469;-32
2023/07/09 02:20:27;;;;;;;41.23;2.60;;;;;;;25.72;54.52;99842.66;7311717;19;129213;-37
2023/07/09 02:22:52;;;;;;;29.17;1.83;;;;;;;25.72;54.36;99832.91;7312629;19;129173;-35
2023/07/09 02:25:18;;;;;;;66.87;3.90;;;;;;;25.74;54.48;99830.97;7311789;19;130872;-37
2023/07/09 02:27:43;;;;;;;24.17;1.57;;;;;;;25.74;54.77;99830.97;7314124;19;129081;-36
2023/07/09 02:30:10;;;;;;;27.20;1.70;;;;;;;25.76;54.47;99839.53;7312954;19;129024;-35
2023/07/09 02:32:36;;;;;;;25.30;1.63;;;;;;;25.74;54.19;99836.22;7312939;19;129057;-33
2023/07/09 02:35:02;;;;;;;47.83;2.83;;;;;;;25.70;52.88;99834.91;7313492;19;130453;-36
2023/07/09 02:37:27;;;;;;;25.93;1.67;;;;;;;25.14;50.80;99842.53;7312114;19;131023;-31
2023/07/09 02:39:53;;;;;;;59.63;3.57;;;;;;;25.04;50.59;99841.81;7310210;19;129245;-29
2023/07/09 02:42:21;;;;;;;38.23;2.30;;;;;;;25.02;50.87;99843.78;7311717;19;130638;-32
2023/07/09 02:44:46;;;;;;;63.67;3.75;;;;;;;25.00;51.69;99845.72;7311892;19;130215;-39
2023/07/09 02:47:13;;;;;;;51.40;3.37;;;;;;;25.41;54.11;99847.63;7312375;19;129220;-34
2023/07/09 02:49:38;;;;;;;32.22;2.00;;;;;;;25.57;53.57;99851.16;7310715;19;129065;-35
2023/07/09 02:52:05;;;;;;;33.93;2.10;;;;;;;25.65;53.97;99853.00;7313148;19;129813;-39
2023/07/09 02:54:31;;;;;;;43.17;2.55;;;;;;;25.65;54.13;99853.81;7313052;19;131521;-35
2023/07/09 02:56:56;;;;;;;74.20;4.57;;;;;;;25.68;53.99;99844.78;7311864;19;130248;-33
2023/07/09 02:59:22;;;;;;;14.47;1.17;;;;;;;25.71;54.33;99847.09;7310361;19;129017;-32
2023/07/09 03:01:48;;;;;;;52.50;3.10;;;;;;;25.70;54.21;99837.53;7311000;19;129650;-38
2023/07/09 03:04:14;;;;;;;36.67;2.17;;;;;;;25.65;54.72;99826.66;7312781;19;129302;-36
2023/07/09 03:06:40;;;;;;;28.17;1.70;;;;;;;25.76;54.32;99844.78;7311917;19;130424;-39
2023/07/09 03:09:06;;;;;;;60.30;3.67;;;;;;;25.73;54.03;99845.94;7310409;19;129489;-34
2023/07/09 03:11:33;;;;;;;39.28;2.35;;;;;;;25.77;54.43;99851.69;7312635;19;131591;-31
2023/07/09 03:13:59;;;;;;;24.42;1.58;;;;;;;25.76;54.77;99847.44;7310667;19;129522;-38
2023/07/09 03:16:30;;;;;;;32.72;2.13;;;;;;;25.44;51.72;99855.19;7310519;19;133042;-35
2023/07/09 03:18:56;;;;;;;34.80;2.03;;;;;;;25.12;50.24;99855.81;7311335;19;129580;-38
2023/07/09 03:21:22;;;;;;;63.97;3.73;;;;;;;24.98;50.64;99837.16;7310299;19;131825;-30
2023/07/09 03:23:48;;;;;;;41.00;2.45;;;;;;;24.98;49.92;99863.47;7308342;19;130547;-31
2023/07/09 03:26:13;;;;;;;25.40;1.63;;;;;;;25.23;54.08;99862.63;7311804;19;129021;-39
2023/07/09 03:28:38;;;;;;;23.63;1.53;;;;;;;25.50;54.07;99865.13;7311013;19;129329;-36
2023/07/09 03:31:04;;;;;;;40.63;2.33;;;;;;;25.61;54.27;99865.66;7312473;19;129397;-34
2023/07/09 03:33:30;;;;;;;69.43;4.20;;;;;;;25.67;53.85;99865.00;7311004;19;130310;-34
2023/07/09 03:35:55;;;;;;;26.80;1.73;;;;;;;25.60;54.07;99852.66;7312126;19;130334;-37
2023/07/09 03:38:21;;;;;;;34.07;2.10;;;;;;;25.62;54.02;99854.13;7310425;19;129350;-36
2023/07/09 03:40:53;;;;;;;47.90;2.88;;;;;;;25.75;54.39;99868.66;7308291;19;129028;-35
2023/07/09 03:43:19;;;;;;;32.70;2.08;;;;;;;25.75;53.91;99868.66;7310462;19;129027;-35
2023/07/09 03:45:45;;;;;;;70.57;4.40;;;;;;;25.77;53.88;99871.97;7311373;19;130877;-31
2023/07/09 03:48:10;;;;;;;26.85;1.67;;;;;;;25.77;54.42;99869.34;7311787;19;129875;-31
2023/07/09 03:50:35;;;;;;;36.67;2.27;;;;;;;25.71;54.56;99860.25;7308153;19;129399;-40
2023/07/09 03:53:01;;;;;;;14.20;1.20;;;;;;;25.77;54.39;99864.88;7311778;19;130282;-35
2023/07/09 03:55:26;;;;;;;28.97;1.87;;;;;;;25.70;54.34;99856.78;7310947;19;130914;-33
2023/07/09 03:57:55;;;;;;;55.97;3.47;;;;;;;25.25;51.78;99864.16;7309502;19;129328;-35
2023/07/09 04:00:21;;;;;;;40.05;2.45;;;;;;;25.06;50.75;99858.25;7309968;19;128953;-36
2023/07/09 04:02:46;;;;;;;25.43;1.60;;;;;;;25.05;49.99;99877.66;7310565;19;129038;-40
2023/07/09 04:05:12;;;;;;;27.10;1.70;;;;;;;25.00;50.14;99878.13;7309960;19;132544;-31
2023/07/09 04:07:37;;;;;;;48.50;2.70;;;;;;;25.40;54.11;99877.56;7310164;19;128750;-36
2023/07/09 04:10:04;;;;;;;82.83;4.83;;;;;;;25.58;53.43;99868.59;7307586;19;129009;-30
2023/07/09 04:12:30;;;;;;;13.95;0.98;;;;;;;25.67;53.41;99877.34;7310918;19;130867;-35
2023/07/09 04:14:55;;;;;;;30.27;1.90;;;;;;;25.69;54.12;99872.75;7310369;19;131164;-32
2023/07/09 04:17:22;;;;;;;30.93;2.10;;;;;;;25.73;54.40;99875.88;7308994;19;129280;-37
2023/07/09 04:19:48;;;;;;;33.92;1.95;;;;;;;25.74;54.04;99873.09;7309040;19;129109;-35
2023/07/09 04:22:13;;;;;;;61.40;3.77;;;;;;;25.76;53.72;99876.41;7309925;19;130524;-34
2023/07/09 04:24:39;;;;;;;7.30;0.63;;;;;;;25.76;53.75;99876.41;7310644;19;130405;-30
2023/07/09 04:27:05;;;;;;;58.57;3.77;;;;;;;25.77;54.46;99875.41;7308790;19;129495;-34
2023/07/09 04:29:33;;;;;;;51.77;2.87;;;;;;;25.77;54.59;99872.78;7309041;19;129788;-35
2023/07/09 04:31:59;;;;;;;27.05;1.65;;;;;;;25.77;54.23;99880.66;7311713;19;130270;-34
2023/07/09 04:34:24;;;;;;;64.40;4.03;;;;;;;25.76;54.15;99876.41;7315592;19;130377;-33
2023/07/09 04:36:49;;;;;;;30.10;1.80;;;;;;;25.68;54.39;99868.47;7317104;19;129488;-35
2023/07/09 04:39:15;;;;;;;41.47;2.43;;;;;;;25.31;50.78;99886.38;7315745;19;130197;-37
2023/07/09 04:41:40;;;;;;;9.77;0.80;;;;;;;25.10;50.93;99878.88;7317763;19;131192;-36
2023/07/09 04:44:06;;;;;;;25.87;1.60;;;;;;;25.06;50.49;99888.03;7314372;19;130667;-32
2023/07/09 04:46:31;;;;;;;80.80;4.80;;;;;;;25.03;50.25;99895.41;7314588;19;129155;-38
2023/07/09 04:48:57;;;;;;;43.20;2.47;;;;;;;25.32;53.64;99893.31;7315367;19;129339;-33
2023/07/09 04:51:22;;;;;;;33.23;2.10;;;;;;;25.58;53.93;99894.09;7316034;19;129430;-36
2023/07/09 04:53:51;;;;;;;36.60;2.17;;;;;;;25.65;54.22;99892.50;7314106;19;129692;-36
2023/07/09 04:56:17;;;;;;;40.75;2.28;;;;;;;25.69;54.10;99902.56;7316506;19;130042;-34
2023/07/09 04:58:42;;;;;;;93.20;5.47;;;;;;;25.73;53.99;99905.69;7314535;19;131977;-35
2023/07/09 05:01:07;;;;;;;70.50;4.27;;;;;;;25.76;53.97;99910.66;7315682;19;130319;-33
2023/07/09 05:03:33;;;;;;;46.43;2.87;;;;;;;25.76;54.37;99908.00;7313017;19;130466;-37
2023/07/09 05:05:58;;;;;;;39.33;2.57;;;;;;;25.78;53.92;99906.03;7315936;19;128919;-35
2023/07/09 05:08:24;;;;;;;50.97;3.00;;;;;;;25.78;53.84;99908.69;7315615;19;129286;-37
2023/07/09 05:10:51;;;;;;;72.07;4.20;;;;;;;25.79;54.03;99901.59;7313333;19;130580;-33
2023/07/09 05:13:17;;;;;;;24.10;1.70;;;;;;;25.79;54.18;99905.06;7314207;19;130953;-36
2023/07/09 05:15:45;;;;;;;34.67;2.23;;;;;;;25.79;54.67;99906.84;7314479;19;128961;-34
2023/07/09 05:18:11;;;;;;;30.33;1.85;;;;;;;25.79;54.64;99912.94;7314715;19;129382;-32
2023/07/09 05:20:37;;;;;;;27.40;1.77;;;;;;;25.27;50.58;99906.09;7314044;19;130019;-33
2023/07/09 05:23:03;;;;;;;48.63;2.97;;;;;;;25.08;50.98;99903.66;7312991;19;129600;-34
2023/07/09 05:25:28;;;;;;;30.07;2.07;;;;;;;24.99;50.73;99905.41;7316005;19;129195;-28
2023/07/09 05:27:54;;;;;;;53.10;3.20;;;;;;;25.01;50.72;99900.00;7314648;19;129077;-34
2023/07/09 05:30:20;;;;;;;26.13;1.60;;;;;;;25.34;54.12;99913.19;7314179;19;128958;-32
2023/07/09 05:32:46;;;;;;;8.93;0.80;;;;;;;25.58;54.22;99915.19;7315584;19;129132;-38
2023/07/09 05:35:12;;;;;;;22.50;1.48;;;;;;;25.57;53.51;99897.72;7313868;19;129024;-39
2023/07/09 05:37:37;;;;;;;13.57;1.10;;;;;;;25.72;53.65;99921.66;7315214;19;129218;-36
2023/07/09 05:40:05;;;;;;;54.27;3.03;;;;;;;25.74;53.69;99925.78;7311935;19;129100;-34
2023/07/09 05:42:31;;;;;;;40.70;2.58;;;;;;;25.75;54.40;99919.50;7313044;19;129536;-35
2023/07/09 05:44:56;;;;;;;53.60;3.05;;;;;;;25.77;53.71;99917.56;7313568;19;128951;-37
2023/07/09 05:47:22;;;;;;;37.53;2.27;;;;;;;25.67;53.99;99893.97;7315444;19;129425;-36
2023/07/09 05:49:50;;;;;;;23.90;1.47;;;;;;;25.79;54.63;99912.94;7313358;19;130230;-37
2023/07/09 05:52:17;;;;;;;62.10;3.72;;;;;;;25.79;54.53;99912.94;7312722;19;129270;-32
2023/07/09 05:54:42;;;;;;;;;;;;;;;25.90;54.39;99910.03;7315123;19;128985;-36
2023/07/09 05:57:07;;;;;;;86.95;5.25;;;;;;;25.71;54.47;99889.22;7313421;19;129045;-35
2023/07/09 05:59:33;;;;;;;36.67;2.30;;;;;;;25.79;54.41;99912.94;7312624;19;129941;-32
2023/07/09 06:02:00;;;;;;;34.83;2.13;;;;;;;25.36;50.57;99910.44;7313955;19;130297;-36
2023/07/09 06:04:26;;;;;;;55.38;3.33;;;;;;;25.25;50.66;99915.94;7313838;19;129418;-37
2023/07/09 06:06:51;;;;;;;33.53;2.00;;;;;;;25.10;50.32;99920.13;7314905;19;129930;-36
2023/07/09 06:09:17;;;;;;;76.77;4.47;;;;;;;25.09;50.04;99918.50;7312702;19;130885;-33
2023/07/09 06:11:43;;;;;;;33.40;1.93;;;;;;;25.25;54.00;99915.94;7314365;19;130400;-37
2023/07/09 06:14:09;;;;;;;49.72;2.65;;;;;;;25.51;53.86;99909.72;7313825;19;129229;-33
2023/07/09 06:16:34;;;;;;;41.60;2.57;;;;;;;25.66;54.21;99913.41;7313326;19;129491;-31
2023/07/09 06:19:00;;;;;;;25.93;1.60;;;;;;;25.72;53.83;99911.13;7313630;19;130335;-33
2023/07/09 06:21:25;;;;;;;78.00;4.60;;;;;;;25.73;54.08;99910.13;7313270;19;131371;-35
2023/07/09 06:23:50;;;;;;;35.57;2.13;;;;;;;25.76;54.11;99910.66;7312534;19;129874;-32
2023/07/09 06:26:16;;;;;;;26.40;1.70;;;;;;;25.77;54.32;99914.91;7313408;19;129110;-32
2023/07/09 06:28:41;;;;;;;31.73;1.97;;;;;;;25.75;54.25;99911.59;7312266;19;129666;-36
2023/07/09 06:31:06;;;;;;;51.43;3.13;;;;;;;25.79;54.46;99909.50;7313395;19;130298;-35
2023/07/09 06:33:32;;;;;;;84.33;4.90;;;;;;;25.79;54.64;99915.59;7312432;19;128898;-34
2023/07/09 06:36:00;;;;;;;25.90;1.57;;;;;;;25.79;54.40;99912.94;7312875;19;128960;-37
2023/07/09 06:38:26;;;;;;;25.23;1.75;;;;;;;25.77;54.32;99914.91;7312542;19;131060;-42
2023/07/09 06:40:52;;;;;;;20.23;1.40;;;;;;;25.80;54.69;99914.59;7310555;19;130378;-36
2023/07/09 06:43:18;;;;;;;31.23;1.83;;;;;;;25.38;51.10;99919.03;7312305;19;129178;-37
2023/07/09 06:45:53;;;;;;;71.37;4.33;;;;;;;25.10;51.27;99915.69;7311748;19;131424;-34
2023/07/09 06:48:20;;;;;;;29.27;1.92;;;;;;;25.02;50.09;99917.44;7312622;19;129137;-31
2023/07/09 06:50:45;;;;;;;65.25;3.85;;;;;;;24.96;49.82;99916.25;7310601;19;130902;-37
2023/07/09 06:53:10;;;;;;;39.70;2.33;;;;;;;25.34;53.83;99917.63;7314223;19;129077;-34
2023/07/09 06:55:36;;;;;;;40.63;2.57;;;;;;;25.58;54.09;99923.06;7311054;19;129516;-39
2023/07/09 06:58:01;;;;;;;33.17;2.13;;;;;;;25.67;53.51;99925.59;7310742;19;130215;-29
2023/07/09 07:00:26;;;;;;;40.60;2.37;;;;;;;25.67;53.72;99917.69;7308606;19;129909;-37
2023/07/09 07:02:52;;;;;;;65.33;3.93;;;;;;;25.74;54.21;99925.78;7311841;19;130089;-39
2023/07/09 07:05:17;;;;;;;13.30;1.07;;;;;;;25.77;54.53;99930.72;7312093;19;128952;-35
2023/07/09 07:07:43;;;;;;;40.57;2.53;;;;;;;25.78;54.16;99926.28;7310763;19;130990;-36
2023/07/09 07:10:09;;;;;;;31.70;1.93;;;;;;;25.70;53.86;99909.47;7309940;19;130202;-37
2023/07/09 07:12:42;;;;;;;36.67;2.27;;;;;;;25.70;54.67;99912.09;7312275;19;128735;-39
2023/07/09 07:15:08;;;;;;;46.97;2.53;;;;;;;25.80;54.13;99919.84;7314006;19;129143;-35
2023/07/09 07:17:34;;;;;;;27.93;1.77;;;;;;;25.80;54.30;99925.13;7312718;19;131358;-31
2023/07/09 07:19:59;;;;;;;44.47;2.50;;;;;;;25.81;54.32;99925.97;7309740;19;131036;-29
2023/07/09 07:22:26;;;;;;;34.23;2.17;;;;;;;25.81;54.47;99921.53;7312928;19;129329;-31
2023/07/09 07:24:51;;;;;;;35.45;2.10;;;;;;;25.30;50.63;99922.38;7313305;19;129740;-39
2023/07/09 07:27:17;;;;;;;42.50;2.70;;;;;;;25.15;51.07;99917.84;7309156;19;130282;-37
2023/07/09 07:29:42;;;;;;;44.60;2.47;;;;;;;25.08;50.42;99928.19;7311278;19;130160;-29
2023/07/09 07:32:08;;;;;;;48.67;3.07;;;;;;;25.02;49.73;99933.22;7312799;19;129122;-31
2023/07/09 07:34:34;;;;;;;28.45;1.70;;;;;;;25.30;53.43;99918.94;7313246;19;129125;-37
2023/07/09 07:36:59;;;;;;;78.17;4.77;;;;;;;25.54;54.17;99924.34;7310738;19;130919;-34
2023/07/09 07:39:24;;;;;;;43.83;2.47;;;;;;;25.67;53.84;99930.00;7310971;19;129372;-37
2023/07/09 07:41:50;;;;;;;27.60;1.83;;;;;;;25.68;53.82;99927.22;7311918;19;129763;-32
2023/07/09 07:44:16;;;;;;;35.27;2.23;;;;;;;25.73;54.00;99929.41;7309083;19;129354;-34
2023/07/09 07:46:42;;;;;;;30.50;1.93;;;;;;;25.76;53.77;99934.34;7311545;19;131389;-34
2023/07/09 07:49:07;;;;;;;69.90;4.17;;;;;;;25.79;54.37;99933.19;7308456;19;130380;-37
2023/07/09 07:51:33;;;;;;;9.07;0.93;;;;;;;25.79;54.04;99922.66;7312453;19;129901;-33
2023/07/09 07:53:59;;;;;;;28.27;1.77;;;;;;;25.79;54.26;99923.50;7311245;19;130271;-39
2023/07/09 07:56:25;;;;;;;32.83;2.03;;;;;;;25.81;54.28;99926.78;7310825;19;130347;-34
2023/07/09 07:58:51;;;;;;;39.72;2.38;;;;;;;25.70;54.19;99908.66;7309292;19;130287;-35
2023/07/09 08:01:16;;;;;;;55.50;3.50;;;;;;;25.78;54.22;99921.84;7311240;19;130688;-36
2023/07/09 08:03:42;;;;;;;33.77;2.00;;;;;;;25.82;54.62;99938.97;7309152;19;129892;-35
2023/07/09 08:06:07;;;;;;;53.20;3.23;;;;;;;25.65;51.66;99937.28;7310666;19;130168;-34
2023/07/09 08:08:32;;;;;;;26.50;1.57;;;;;;;25.20;50.83;99931.38;7317807;19;130622;-36
2023/07/09 08:11:04;;;;;;;34.57;1.90;;;;;;;25.13;51.00;99927.72;7315479;19;131216;-37
2023/07/09 08:13:32;;;;;;;29.60;1.83;;;;;;;25.01;50.48;99926.28;7316940;19;129985;-35
2023/07/09 08:15:58;;;;;;;57.50;3.08;;;;;;;25.14;53.86;99926.75;7317257;19;130144;-31
2023/07/09 08:18:23;;;;;;;61.20;3.57;;;;;;;25.47;53.40;99920.69;7316428;19;129361;-35
2023/07/09 08:20:48;;;;;;;44.30;2.40;;;;;;;25.63;53.95;99923.44;7316219;19;128961;-32
2023/07/09 08:23:14;;;;;;;55.73;3.47;;;;;;;25.69;54.15;99920.16;7315952;19;130636;-33
2023/07/09 08:25:39;;;;;;;53.77;3.10;;;;;;;25.73;53.85;99924.13;7315750;19;130375;-34
2023/07/09 08:28:05;;;;;;;40.70;2.20;;;;;;;25.75;53.77;99926.59;7316852;19;130503;-39
2023/07/09 08:30:30;;;;;;;33.97;2.07;;;;;;;25.77;53.98;99922.00;7315182;19;129435;-37
2023/07/09 08:32:57;;;;;;;23.00;1.47;;;;;;;25.67;54.43;99903.69;7317219;19;128991;-36
2023/07/09 08:35:23;;;;;;;84.43;5.05;;;;;;;25.79;53.74;99923.50;7316234;19;130071;-29
2023/07/09 08:37:48;;;;;;;30.63;1.80;;;;;;;25.80;54.38;99919.84;7317322;19;130329;-33
2023/07/09 08:40:16;;;;;;;29.23;1.87;;;;;;;25.80;54.11;99914.59;7314001;19;128962;-33
2023/07/09 08:42:49;;;;;;;23.98;1.48;;;;;;;25.81;54.33;99918.91;7316729;19;129694;-33
2023/07/09 08:45:34;;;;;;;36.53;2.30;;;;;;;25.83;54.41;99910.84;7315904;19;130141;-41
2023/07/09 08:48:09;;;;;;;38.10;2.28;;;;;;;25.56;52.91;99912.69;7315129;19;130211;-35
2023/07/09 08:50:42;;;;;;;52.75;3.08;;;;;;;25.16;51.21;99906.34;7315287;19;130693;-35
2023/07/09 08:53:19;;;;;;;28.95;1.67;;;;;;;25.10;50.23;99904.34;7317074;19;128932;-34
2023/07/09 08:55:48;;;;;;;10.23;0.77;;;;;;;25.09;49.96;99914.03;7317395;19;130165;-33
2023/07/09 08:58:28;;;;;;;23.60;1.58;;;;;;;25.32;53.85;99909.09;7315929;19;130622;-31
2023/07/09 09:00:58;;;;;;;30.25;1.83;;;;;;;25.48;54.20;99888.13;7314061;19;131584;-36
2023/07/09 09:03:51;;;;;;;45.60;2.65;;;;;;;25.73;53.53;99912.75;7314926;19;130018;-37
2023/07/09 09:06:19;;;;;;;27.25;1.75;;;;;;;25.72;53.77;99904.03;7314604;19;128954;-33
2023/07/09 09:08:50;;;;;;;52.75;2.88;;;;;;;25.73;54.06;99908.34;7314722;19;129698;-34
2023/07/09 09:11:36;;;;;;;28.35;1.63;;;;;;;25.81;53.75;99905.72;7317231;19;129164;-33
2023/07/09 09:14:13;;;;;;;33.97;2.05;;;;;;;25.79;53.71;99912.13;7318104;19;129797;-34
2023/07/09 09:16:39;;;;;;;86.70;5.07;;;;;;;25.78;54.47;99900.78;7313837;19;130260;-32
2023/07/09 09:19:26;;;;;;;29.60;1.70;;;;;;;25.82;53.93;99899.47;7313482;19;131388;-29
2023/07/09 09:21:58;;;;;;;29.95;1.85;;;;;;;25.72;54.00;99890.84;7315550;19;128957;-36
2023/07/09 09:24:30;;;;;;;27.10;1.73;;;;;;;25.81;54.35;99905.72;7313991;19;129223;-30
2023/07/09 09:26:58;;;;;;;40.97;2.35;;;;;;;25.80;54.09;99904.06;7315347;19;131193;-38
2023/07/09 09:29:24;;;;;;;24.17;1.60;;;;;;;25.72;52.82;99905.88;7315294;19;130315;-32
2023/07/09 09:31:55;;;;;;;54.55;3.13;;;;;;;25.18;50.92;99899.13;7314621;19;129465;-29
2023/07/09 09:34:28;;;;;;;46.30;2.72;;;;;;;25.07;50.42;99904.66;7314852;19;129259;-37
2023/07/09 09:36:54;;;;;;;72.43;3.97;;;;;;;25.03;50.54;99909.41;7313319;19;129004;-34
2023/07/09 09:39:19;;;;;;;36.55;2.03;;;;;;;25.14;53.38;99905.69;7314892;19;130264;-30
2023/07/09 09:41:45;;;;;;;63.63;4.10;;;;;;;25.50;53.95;99896.72;7315347;19;129089;-33
2023/07/09 09:44:24;;;;;;;30.30;1.87;;;;;;;25.65;53.82;99900.41;7314325;19;131071;-36
2023/07/09 09:46:52;;;;;;;58.72;3.55;;;;;;;25.68;53.95;99894.81;7313629;19;130177;-34
2023/07/09 09:49:17;;;;;;;48.05;2.78;;;;;;;25.61;53.90;99888.53;7313585;19;130381;-36
2023/07/09 09:51:46;;;;;;;48.10;2.83;;;;;;;25.73;53.75;99901.22;7314081;19;129372;-36
2023/07/09 09:54:25;;;;;;;12.50;0.93;;;;;;;25.79;54.05;99898.94;7315601;19;128968;-31
2023/07/09 09:56:53;;;;;;;62.60;3.78;;;;;;;25.77;53.81;99893.84;7312433;19;130121;-35
2023/07/09 09:59:21;;;;;;;34.92;2.17;;;;;;;25.78;54.42;99890.25;7313030;19;130661;-38
2023/07/09 10:01:48;;;;;;;75.90;4.45;;;;;;;25.72;53.96;99885.59;7314275;19;131705;-37
2023/07/09 10:04:18;;;;;;;;;;;;;;;25.90;53.85;99893.41;7315569;19;130187;-33
2023/07/09 10:06:56;;;;;;;41.35;2.45;;;;;;;25.83;54.41;99893.22;7312776;19;130066;-36
2023/07/09 10:09:49;;;;;;;28.38;1.67;;;;;;;25.84;54.00;99886.13;7313247;19;130402;-36
2023/07/09 10:12:20;;;;;;;54.78;2.95;;;;;;;25.19;51.12;99871.81;7314698;19;129299;-33
2023/07/09 10:15:06;;;;;;;42.00;2.47;;;;;;;25.11;52.92;99888.41;7313052;19;129066;-36
2023/07/09 10:17:45;;;;;;;37.03;2.35;;;;;;;25.06;50.85;99881.94;7312916;19;129148;-36
2023/07/09 10:20:19;;;;;;;40.95;2.35;;;;;;;25.07;52.01;99886.25;7312301;19;131281;-33
2023/07/09 10:22:44;;;;;;;55.95;3.08;;;;;;;25.46;53.57;99879.56;7312840;19;129407;-38
2023/07/09 10:25:18;;;;;;;44.63;2.57;;;;;;;25.63;53.94;99886.56;7311811;19;130174;-34
2023/07/09 10:28:10;;;;;;;29.73;1.80;;;;;;;25.69;53.87;99880.66;7313067;19;130139;-32
2023/07/09 10:31:00;;;;;;;43.25;2.42;;;;;;;25.73;53.71;99884.63;7307980;19;129721;-37
2023/07/09 10:33:28;;;;;;;39.28;2.25;;;;;;;25.74;54.10;99888.91;7313935;19;128847;-33
2023/07/09 10:36:27;;;;;;;46.70;2.63;;;;;;;25.78;53.81;99882.34;7311464;19;130743;-31
2023/07/09 10:39:04;;;;;;;66.05;3.63;;;;;;;25.72;54.13;99866.34;7311896;19;130180;-39
2023/07/09 10:41:30;;;;;;;;;;;;;;;25.88;54.53;99885.66;7312042;19;130452;-34
2023/07/09 10:44:20;;;;;;;34.30;2.15;;;;;;;25.82;54.43;99881.03;7308122;19;129574;-32
2023/07/09 10:46:52;;;;;;;86.38;4.85;;;;;;;25.78;54.35;99874.44;7308398;19;129137;-39
2023/07/09 10:49:19;;;;;;;52.92;2.92;;;;;;;25.79;54.53;99878.72;7310650;19;129988;-33
2023/07/09 10:51:54;;;;;;;24.35;1.60;;;;;;;25.79;54.89;99873.44;7311752;19;130976;-38
2023/07/09 10:54:26;;;;;;;24.63;1.75;;;;;;;25.39;50.54;99868.00;7312720;19;129455;-35
2023/07/09 10:56:59;;;;;;;26.60;1.63;;;;;;;25.11;51.17;99874.41;7312974;19;129178;-34
2023/07/09 10:59:37;;;;;;;45.33;2.60;;;;;;;25.02;50.96;99880.63;7310890;19;129446;-33
2023/07/09 11:02:24;;;;;;;55.00;2.97;;;;;;;24.98;52.06;99869.56;7310531;19;129665;-41
2023/07/09 11:04:57;;;;;;;37.58;2.22;;;;;;;25.45;53.86;99867.41;7310259;19;129360;-35
2023/07/09 11:07:38;;;;;;;77.95;4.45;;;;;;;25.60;53.93;99865.81;7311593;19;130421;-34
2023/07/09 11:10:18;;;;;;;41.15;2.47;;;;;;;25.68;54.07;99873.75;7311543;19;130762;-37
2023/07/09 11:12:46;;;;;;;15.88;1.00;;;;;;;25.70;53.95;99867.31;7312371;19;130316;-38
2023/07/09 11:15:20;;;;;;;38.67;2.35;;;;;;;25.73;54.33;99868.81;7310918;19;129018;-34
2023/07/09 11:17:47;;;;;;;11.98;0.95;;;;;;;25.66;54.23;99846.75;7312143;19;129888;-35
2023/07/09 11:20:31;;;;;;;45.10;2.78;;;;;;;25.77;54.30;99856.16;7310445;19;130314;-36
2023/07/09 11:23:37;;;;;;;42.63;2.50;;;;;;;25.79;54.46;99856.81;7312145;19;129254;-33
2023/07/09 11:26:12;;;;;;;39.47;2.22;;;;;;;25.80;54.77;99856.63;7308913;19;130290;-33